createdAt,value
2022-11-08T00:02:21.573Z,65.80
2022-11-08T00:04:48.439Z,65.60
2022-11-08T00:07:33.888Z,65.70
2022-11-08T00:10:19.295Z,65.90
2022-11-08T00:13:04.675Z,65.80
2022-11-08T00:15:38.313Z,65.80
2022-11-08T00:18:05.779Z,65.80
2022-11-08T00:20:32.446Z,65.90
2022-11-08T00:22:59.189Z,65.90
2022-11-08T00:25:25.875Z,65.80
2022-11-08T00:27:52.632Z,65.80
2022-11-08T00:30:19.474Z,65.70
2022-11-08T00:32:46.170Z,65.80
2022-11-08T00:35:12.882Z,65.90
2022-11-08T00:37:39.589Z,65.70
2022-11-08T00:40:06.843Z,65.80
2022-11-08T00:42:33.664Z,65.80
2022-11-08T00:45:00.350Z,65.90
2022-11-08T00:47:27.051Z,65.70
2022-11-08T00:49:53.799Z,65.70
2022-11-08T00:52:20.465Z,65.70
2022-11-08T00:54:47.153Z,65.80
2022-11-08T00:57:13.840Z,65.80
2022-11-08T00:59:40.521Z,65.60
2022-11-08T01:02:07.280Z,65.80
2022-11-08T01:04:34.084Z,65.70
2022-11-08T01:07:00.802Z,65.80
2022-11-08T01:09:27.536Z,65.60
2022-11-08T01:11:54.207Z,65.60
2022-11-08T01:14:20.878Z,65.70
2022-11-08T01:16:47.561Z,65.50
2022-11-08T01:19:14.342Z,65.80
2022-11-08T01:21:41.032Z,65.60
2022-11-08T01:24:07.777Z,65.70
2022-11-08T01:26:34.618Z,65.70
2022-11-08T01:29:01.417Z,65.70
2022-11-08T01:31:31.606Z,65.80
2022-11-08T01:33:58.756Z,65.60
2022-11-08T01:36:26.146Z,65.60
2022-11-08T01:38:53.299Z,65.50
2022-11-08T01:41:20.772Z,65.70
2022-11-08T01:43:51.178Z,65.70
2022-11-08T01:46:37.015Z,65.70
2022-11-08T01:49:15.585Z,65.70
2022-11-08T01:51:52.776Z,65.70
2022-11-08T01:54:23.257Z,65.70
2022-11-08T01:56:49.980Z,65.70
2022-11-08T01:59:17.988Z,65.70
2022-11-08T02:01:45.038Z,65.80
2022-11-08T02:04:13.103Z,65.70
2022-11-08T02:06:40.463Z,65.80
2022-11-08T02:09:08.700Z,65.70
2022-11-08T02:11:36.145Z,65.70
2022-11-08T02:14:03.083Z,65.70
2022-11-08T02:16:29.862Z,65.60
2022-11-08T02:18:56.545Z,65.70
2022-11-08T02:21:38.898Z,65.70
2022-11-08T02:24:09.814Z,65.70
2022-11-08T02:26:36.718Z,65.80
2022-11-08T02:29:22.887Z,65.60
2022-11-08T02:31:49.615Z,65.70
2022-11-08T02:34:16.581Z,65.70
2022-11-08T02:36:44.193Z,65.70
2022-11-08T02:39:10.859Z,65.70
2022-11-08T02:41:37.512Z,65.70
2022-11-08T02:44:04.306Z,65.80
2022-11-08T02:46:30.998Z,65.80
2022-11-08T02:48:57.689Z,65.70
2022-11-08T02:51:24.374Z,65.70
2022-11-08T02:53:51.121Z,65.80
2022-11-08T02:56:17.808Z,65.70
2022-11-08T02:58:44.502Z,65.80
2022-11-08T03:01:11.255Z,65.80
2022-11-08T03:03:37.982Z,65.80
2022-11-08T03:06:04.662Z,65.90
2022-11-08T03:08:31.382Z,65.80
2022-11-08T03:10:59.591Z,66.40
2022-11-08T03:13:26.371Z,65.80
2022-11-08T03:15:53.045Z,65.80
2022-11-08T03:18:20.085Z,65.80
2022-11-08T03:20:46.959Z,65.80
2022-11-08T03:23:13.685Z,65.80
2022-11-08T03:25:40.393Z,65.80
2022-11-08T03:28:08.774Z,65.80
2022-11-08T03:30:36.320Z,65.80
2022-11-08T03:33:03.093Z,65.50
2022-11-08T03:35:29.837Z,65.80
2022-11-08T03:37:57.336Z,65.80
2022-11-08T03:40:24.811Z,66.10
2022-11-08T03:42:51.587Z,65.90
2022-11-08T03:45:18.558Z,65.80
2022-11-08T03:47:46.391Z,65.90
2022-11-08T03:50:13.953Z,65.80
2022-11-08T03:52:48.201Z,65.80
2022-11-08T03:55:15.442Z,65.80
2022-11-08T03:57:42.674Z,65.80
2022-11-08T04:00:10.525Z,65.70
2022-11-08T04:02:37.493Z,65.80
2022-11-08T04:05:04.654Z,65.90
2022-11-08T04:07:31.575Z,65.80
2022-11-08T04:09:58.341Z,65.80
2022-11-08T04:12:43.685Z,65.80
2022-11-08T04:15:16.488Z,65.80
2022-11-08T04:18:06.005Z,65.80
2022-11-08T04:20:51.477Z,65.90
2022-11-08T04:23:18.569Z,65.60
2022-11-08T04:25:45.531Z,65.60
2022-11-08T04:28:12.205Z,65.60
2022-11-08T04:30:38.934Z,65.60
2022-11-08T04:33:05.671Z,65.60
2022-11-08T04:35:32.358Z,65.60
2022-11-08T04:38:00.350Z,65.50
2022-11-08T04:40:27.639Z,65.70
2022-11-08T04:42:54.337Z,65.60
2022-11-08T04:45:21.264Z,65.60
2022-11-08T04:47:48.541Z,65.60
2022-11-08T04:50:15.980Z,65.60
2022-11-08T04:52:42.741Z,65.70
2022-11-08T04:55:09.536Z,65.90
2022-11-08T04:57:36.269Z,65.90
2022-11-08T05:00:03.786Z,66.00
2022-11-08T05:02:30.610Z,65.90
2022-11-08T05:04:57.877Z,65.90
2022-11-08T05:07:24.569Z,66.00
2022-11-08T05:09:51.253Z,65.80
2022-11-08T05:12:17.954Z,65.80
2022-11-08T05:14:44.670Z,65.70
2022-11-08T05:17:11.396Z,65.70
2022-11-08T05:19:56.806Z,65.70
2022-11-08T05:22:42.381Z,65.60
2022-11-08T05:25:09.447Z,65.60
2022-11-08T05:27:36.144Z,65.50
2022-11-08T05:30:02.957Z,65.60
2022-11-08T05:32:29.681Z,65.50
2022-11-08T05:34:56.344Z,65.40
2022-11-08T05:37:22.989Z,65.40
2022-11-08T05:39:49.648Z,65.40
2022-11-08T05:42:16.363Z,65.40
2022-11-08T05:44:43.142Z,65.30
2022-11-08T05:47:09.819Z,65.10
2022-11-08T05:49:36.528Z,65.30
2022-11-08T05:52:03.381Z,65.10
2022-11-08T05:54:30.100Z,65.20
2022-11-08T05:56:56.786Z,65.40
2022-11-08T05:59:23.498Z,65.30
2022-11-08T06:01:50.311Z,65.20
2022-11-08T06:04:17.021Z,64.90
2022-11-08T06:06:43.740Z,65.50
2022-11-08T06:09:10.442Z,65.50
2022-11-08T06:11:37.508Z,65.60
2022-11-08T06:14:04.422Z,65.60
2022-11-08T06:16:31.116Z,65.50
2022-11-08T06:18:57.891Z,65.40
2022-11-08T06:21:27.217Z,65.30
2022-11-08T06:23:54.666Z,65.20
2022-11-08T06:26:22.178Z,65.50
2022-11-08T06:28:48.883Z,65.50
2022-11-08T06:31:15.576Z,65.30
2022-11-08T06:33:42.279Z,65.30
2022-11-08T06:36:09.154Z,65.20
2022-11-08T06:38:36.072Z,65.20
2022-11-08T06:41:03.006Z,65.00
2022-11-08T06:43:29.995Z,65.20
2022-11-08T06:45:59.878Z,65.10
2022-11-08T06:48:29.849Z,65.00
2022-11-08T06:50:59.239Z,64.70
2022-11-08T06:53:26.059Z,64.50
2022-11-08T06:55:52.747Z,64.40
2022-11-08T06:58:19.419Z,64.50
2022-11-08T07:00:46.148Z,64.50
2022-11-08T07:03:13.795Z,64.60
2022-11-08T07:05:40.550Z,64.60
2022-11-08T07:08:07.265Z,64.60
2022-11-08T07:10:34.460Z,64.60
2022-11-08T07:13:04.609Z,64.60
2022-11-08T07:15:32.205Z,64.80
2022-11-08T07:18:03.218Z,64.90
2022-11-08T07:20:30.221Z,64.90
2022-11-08T07:22:57.364Z,64.90
2022-11-08T07:25:24.327Z,64.90
2022-11-08T07:27:51.029Z,65.00
2022-11-08T07:30:17.801Z,64.90
2022-11-08T07:32:44.482Z,64.90
2022-11-08T07:35:11.203Z,64.90
2022-11-08T07:37:37.894Z,65.20
2022-11-08T07:40:04.934Z,65.20
2022-11-08T07:42:56.853Z,65.20
2022-11-08T07:45:18.363Z,65.20
2022-11-08T07:47:45.057Z,65.20
2022-11-08T07:50:14.274Z,65.20
2022-11-08T07:52:49.154Z,65.20
2022-11-08T07:55:15.967Z,65.20
2022-11-08T07:57:42.675Z,65.20
2022-11-08T08:00:09.601Z,65.10
2022-11-08T08:02:36.360Z,65.20
2022-11-08T08:05:03.140Z,65.20
2022-11-08T08:07:29.952Z,65.20
2022-11-08T08:09:56.685Z,65.20
2022-11-08T08:12:23.420Z,65.30
2022-11-08T08:14:50.103Z,65.30
2022-11-08T08:17:16.800Z,65.40
2022-11-08T08:19:43.494Z,65.30
2022-11-08T08:22:10.790Z,65.30
2022-11-08T08:24:37.473Z,65.40
2022-11-08T08:27:04.256Z,65.20
2022-11-08T08:29:30.965Z,65.40
2022-11-08T08:31:57.688Z,65.40
2022-11-08T08:34:24.435Z,65.40
2022-11-08T08:36:51.218Z,65.40
2022-11-08T08:39:18.006Z,65.50
2022-11-08T08:41:44.674Z,65.40
2022-11-08T08:44:11.390Z,65.50
2022-11-08T08:46:38.049Z,65.50
2022-11-08T08:49:04.726Z,65.50
2022-11-08T08:54:14.802Z,65.50
2022-11-08T08:56:41.569Z,65.60
2022-11-08T09:01:55.022Z,65.60
2022-11-08T09:04:21.730Z,65.60
2022-11-08T09:06:48.469Z,65.60
2022-11-08T09:09:15.213Z,65.60
2022-11-08T09:11:41.918Z,65.60
2022-11-08T09:14:08.620Z,65.60
2022-11-08T09:16:35.424Z,65.70
2022-11-08T09:19:02.127Z,65.80
2022-11-08T09:21:28.832Z,65.80
2022-11-08T09:23:55.508Z,65.80
2022-11-08T09:26:22.225Z,65.80
2022-11-08T09:28:48.969Z,65.80
2022-11-08T09:31:15.641Z,65.80
2022-11-08T09:33:42.344Z,65.90
2022-11-08T09:36:11.648Z,65.90
2022-11-08T09:38:38.481Z,65.90
2022-11-08T09:41:05.141Z,65.80
2022-11-08T09:43:46.477Z,65.90
2022-11-08T09:46:18.045Z,66.00
2022-11-08T09:48:45.214Z,66.00
2022-11-08T09:51:20.252Z,66.00
2022-11-08T09:53:53.005Z,66.00
2022-11-08T09:56:33.774Z,66.00
2022-11-08T09:59:03.939Z,66.00
2022-11-08T10:01:32.220Z,66.00
2022-11-08T10:04:01.319Z,66.00
2022-11-08T10:06:33.820Z,66.00
2022-11-08T10:09:06.463Z,66.00
2022-11-08T10:11:52.283Z,66.10
2022-11-08T10:14:46.727Z,66.50
2022-11-08T10:17:47.072Z,66.60
2022-11-08T10:20:32.390Z,66.50
2022-11-08T10:23:17.812Z,66.50
2022-11-08T10:25:46.763Z,66.40
2022-11-08T10:28:18.014Z,66.40
2022-11-08T10:30:47.462Z,66.40
2022-11-08T10:33:17.278Z,66.40
2022-11-08T10:35:47.062Z,66.40
2022-11-08T10:38:18.086Z,66.40
2022-11-08T10:40:57.351Z,66.40
2022-11-08T10:43:30.312Z,66.40
2022-11-08T10:45:57.096Z,66.40
2022-11-08T10:48:23.851Z,66.30
2022-11-08T10:50:51.636Z,66.30
2022-11-08T10:53:29.593Z,66.30
2022-11-08T10:56:00.610Z,66.40
2022-11-08T10:58:33.274Z,66.40
2022-11-08T11:01:05.609Z,66.40
2022-11-08T11:03:32.527Z,66.40
2022-11-08T11:05:59.207Z,66.40
2022-11-08T11:08:26.435Z,66.40
2022-11-08T11:10:53.147Z,66.40
2022-11-08T11:15:57.382Z,66.40
2022-11-08T11:18:35.198Z,66.40
2022-11-08T11:21:04.643Z,66.40
2022-11-08T11:23:35.675Z,66.30
2022-11-08T11:26:02.460Z,66.20
2022-11-08T11:28:29.295Z,66.00
2022-11-08T11:31:04.081Z,65.80
2022-11-08T11:33:31.555Z,65.90
2022-11-08T11:36:02.050Z,65.80
2022-11-08T11:38:34.801Z,65.90
2022-11-08T11:41:08.300Z,65.90
2022-11-08T11:43:43.124Z,66.00
2022-11-08T11:46:10.586Z,66.00
2022-11-08T11:48:42.190Z,65.90
2022-11-08T11:51:10.638Z,65.90
2022-11-08T11:53:39.340Z,65.90
2022-11-08T11:56:14.909Z,65.90
2022-11-08T11:58:42.862Z,66.10
2022-11-08T12:01:26.890Z,66.20
2022-11-08T12:04:07.788Z,66.20
2022-11-08T12:06:43.759Z,66.20
2022-11-08T12:09:25.200Z,66.20
2022-11-08T12:12:10.743Z,66.20
2022-11-08T12:14:44.778Z,66.20
2022-11-08T12:17:19.641Z,66.10
2022-11-08T12:20:04.813Z,66.10
2022-11-08T12:22:46.741Z,66.10
2022-11-08T12:25:32.686Z,66.10
2022-11-08T12:27:59.349Z,66.10
2022-11-08T12:30:25.984Z,66.10
2022-11-08T12:33:01.834Z,66.10
2022-11-08T12:35:35.613Z,66.20
2022-11-08T12:38:05.325Z,66.20
2022-11-08T12:40:42.610Z,66.10
2022-11-08T12:43:21.770Z,66.10
2022-11-08T12:46:03.790Z,66.10
2022-11-08T12:48:43.509Z,66.10
2022-11-08T12:51:19.388Z,66.10
2022-11-08T12:53:49.106Z,66.00
2022-11-08T12:56:19.980Z,66.10
2022-11-08T12:58:48.795Z,66.10
2022-11-08T13:01:16.654Z,66.00
2022-11-08T13:03:44.157Z,66.00
2022-11-08T13:06:13.669Z,66.00
2022-11-08T13:08:46.560Z,66.00
2022-11-08T13:11:18.889Z,66.00
2022-11-08T13:13:55.939Z,66.00
2022-11-08T13:16:22.658Z,65.90
2022-11-08T13:18:57.771Z,65.90
2022-11-08T13:21:27.256Z,65.80
2022-11-08T13:23:54.600Z,66.10
2022-11-08T13:26:25.165Z,66.10
2022-11-08T13:28:52.497Z,65.80
2022-11-08T13:31:21.884Z,65.90
2022-11-08T13:33:57.155Z,65.90
2022-11-08T13:36:27.113Z,65.80
2022-11-08T13:39:14.710Z,65.80
2022-11-08T13:42:00.425Z,65.70
2022-11-08T13:44:45.977Z,65.80
2022-11-08T13:47:31.578Z,65.90
2022-11-08T13:50:17.044Z,66.00
2022-11-08T13:53:01.130Z,66.60
2022-11-08T13:55:44.064Z,65.80
2022-11-08T13:58:29.482Z,65.80
2022-11-08T14:00:56.466Z,65.90
2022-11-08T14:03:49.625Z,65.90
2022-11-08T14:06:19.737Z,65.90
2022-11-08T14:08:46.402Z,65.90
2022-11-08T14:11:25.265Z,66.00
2022-11-08T14:13:51.979Z,66.00
2022-11-08T14:16:22.016Z,66.00
2022-11-08T14:18:48.737Z,66.00
2022-11-08T14:21:19.338Z,66.00
2022-11-08T14:23:49.017Z,66.00
2022-11-08T14:26:20.130Z,66.00
2022-11-08T14:28:47.625Z,66.00
2022-11-08T14:31:23.332Z,66.00
2022-11-08T14:33:50.026Z,66.20
2022-11-08T14:36:18.306Z,66.10
2022-11-08T14:38:46.818Z,66.10
2022-11-08T14:41:15.586Z,66.20
2022-11-08T14:43:43.555Z,66.20
2022-11-08T14:46:13.271Z,66.20
2022-11-08T14:48:48.821Z,66.30
2022-11-08T14:51:15.468Z,66.20
2022-11-08T14:53:46.017Z,65.80
2022-11-08T14:56:20.865Z,65.90
2022-11-08T14:58:48.519Z,66.00
2022-11-08T15:01:17.224Z,66.10
2022-11-08T15:03:45.515Z,66.20
2022-11-08T15:06:14.351Z,66.20
2022-11-08T15:08:52.248Z,66.20
2022-11-08T15:11:29.526Z,66.30
2022-11-08T15:14:01.991Z,66.30
2022-11-08T15:16:37.616Z,66.30
2022-11-08T15:19:23.271Z,66.30
2022-11-08T15:21:52.257Z,66.30
2022-11-08T15:24:25.689Z,66.30
2022-11-08T15:27:00.141Z,66.50
2022-11-08T15:29:26.865Z,66.40
2022-11-08T15:32:00.966Z,66.70
2022-11-08T15:34:36.674Z,66.60
2022-11-08T15:37:03.449Z,66.50
2022-11-08T15:39:38.298Z,66.40
2022-11-08T15:42:11.784Z,66.30
2022-11-08T15:44:57.765Z,66.00
2022-11-08T15:47:39.816Z,65.60
2022-11-08T15:50:23.047Z,65.50
2022-11-08T15:52:51.106Z,65.40
2022-11-08T15:55:19.372Z,65.40
2022-11-08T15:57:46.965Z,65.60
2022-11-08T16:00:15.022Z,65.60
2022-11-08T16:02:41.745Z,65.70
2022-11-08T16:05:16.119Z,65.70
2022-11-08T16:07:44.062Z,65.70
2022-11-08T16:10:11.696Z,65.70
2022-11-08T16:12:39.871Z,65.70
2022-11-08T16:15:09.858Z,65.70
2022-11-08T16:17:36.552Z,65.70
2022-11-08T16:20:03.948Z,65.70
2022-11-08T16:22:30.621Z,65.80
2022-11-08T16:24:57.327Z,65.80
2022-11-08T16:27:24.037Z,65.80
2022-11-08T16:29:50.697Z,65.80
2022-11-08T16:32:17.370Z,65.90
2022-11-08T16:34:44.048Z,65.90
2022-11-08T16:37:11.125Z,65.80
2022-11-08T16:39:37.799Z,65.80
2022-11-08T16:42:04.695Z,65.80
2022-11-08T16:44:31.355Z,65.80
2022-11-08T16:46:58.058Z,65.80
2022-11-08T16:49:25.379Z,65.80
2022-11-08T16:51:52.067Z,66.10
2022-11-08T16:54:20.090Z,66.20
2022-11-08T16:56:46.840Z,66.20
2022-11-08T16:59:14.893Z,66.00
2022-11-08T17:01:42.907Z,65.90
2022-11-08T17:04:09.760Z,65.90
2022-11-08T17:06:36.533Z,65.90
2022-11-08T17:09:03.458Z,66.00
2022-11-08T17:11:30.098Z,66.00
2022-11-08T17:13:56.997Z,65.90
2022-11-08T17:16:23.753Z,66.00
2022-11-08T17:18:53.105Z,66.00
2022-11-08T17:24:07.617Z,66.00
2022-11-08T17:26:34.269Z,65.90
2022-11-08T17:29:00.968Z,65.80
2022-11-08T17:31:27.732Z,65.90
2022-11-08T17:33:55.410Z,66.20
2022-11-08T17:36:22.073Z,66.20
2022-11-08T17:38:48.816Z,66.30
2022-11-08T17:41:15.725Z,66.20
2022-11-08T17:43:42.687Z,65.90
2022-11-08T17:46:10.711Z,65.80
2022-11-08T17:48:38.170Z,65.70
2022-11-08T17:51:04.953Z,66.20
2022-11-08T17:53:32.847Z,66.00
2022-11-08T17:56:01.023Z,65.80
2022-11-08T17:58:28.282Z,66.00
2022-11-08T18:00:57.914Z,66.00
2022-11-08T18:03:25.378Z,65.90
2022-11-08T18:05:56.406Z,65.80
2022-11-08T18:08:26.843Z,65.80
2022-11-08T18:10:54.586Z,65.80
2022-11-08T18:13:21.892Z,65.80
2022-11-08T18:15:49.890Z,65.60
2022-11-08T18:18:16.994Z,65.70
2022-11-08T18:20:44.062Z,65.80
2022-11-08T18:23:12.337Z,65.70
2022-11-08T18:25:39.178Z,65.60
2022-11-08T18:28:05.880Z,65.50
2022-11-08T18:30:33.076Z,65.50
2022-11-08T18:32:59.780Z,65.50
2022-11-08T18:35:28.136Z,65.30
2022-11-08T18:37:55.690Z,65.40
2022-11-08T18:40:22.534Z,65.20
2022-11-08T18:42:49.250Z,65.00
2022-11-08T18:45:16.052Z,64.90
2022-11-08T18:47:42.834Z,64.70
2022-11-08T18:50:09.759Z,64.40
2022-11-08T18:52:36.962Z,64.20
2022-11-08T18:55:04.277Z,64.10
2022-11-08T18:57:30.962Z,64.20
2022-11-08T19:00:01.057Z,64.10
2022-11-08T19:02:28.237Z,64.30
2022-11-08T19:04:54.907Z,64.30
2022-11-08T19:07:21.705Z,64.30
2022-11-08T19:09:48.493Z,64.10
2022-11-08T19:12:15.262Z,64.10
2022-11-08T19:14:42.063Z,64.10
2022-11-08T19:17:08.862Z,64.20
2022-11-08T19:19:37.061Z,64.20
2022-11-08T19:22:04.136Z,64.30
2022-11-08T19:24:30.867Z,64.30
2022-11-08T19:26:57.540Z,64.40
2022-11-08T19:29:24.234Z,64.40
2022-11-08T19:31:50.914Z,64.60
2022-11-08T19:34:17.668Z,64.70
2022-11-08T19:36:44.476Z,64.70
2022-11-08T19:39:11.953Z,64.70
2022-11-08T19:41:39.050Z,65.30
2022-11-08T19:44:06.177Z,64.80
2022-11-08T19:46:33.994Z,64.80
2022-11-08T19:49:02.117Z,64.90
2022-11-08T19:51:29.729Z,65.00
2022-11-08T19:53:57.514Z,64.90
2022-11-08T19:56:43.474Z,64.90
2022-11-08T19:59:11.078Z,65.00
2022-11-08T20:01:40.014Z,65.00
2022-11-08T20:04:08.091Z,65.10
2022-11-08T20:06:35.134Z,64.90
2022-11-08T20:09:02.339Z,65.00
2022-11-08T20:11:33.957Z,65.00
2022-11-08T20:14:01.217Z,65.10
2022-11-08T20:16:29.246Z,65.00
2022-11-08T20:19:00.183Z,65.10
2022-11-08T20:21:26.887Z,65.20
2022-11-08T20:23:53.635Z,65.00
2022-11-08T20:26:21.538Z,65.00
2022-11-08T20:28:55.953Z,65.00
2022-11-08T20:31:24.072Z,65.00
2022-11-08T20:33:53.077Z,65.10
2022-11-08T20:36:20.909Z,65.10
2022-11-08T20:38:47.676Z,65.10
2022-11-08T20:41:16.311Z,65.80
2022-11-08T20:43:43.991Z,65.20
2022-11-08T20:46:11.930Z,65.10
2022-11-08T20:48:42.721Z,65.10
2022-11-08T20:51:11.482Z,65.10
2022-11-08T20:53:38.561Z,65.10
2022-11-08T20:56:09.804Z,65.10
2022-11-08T20:58:36.747Z,65.20
2022-11-08T21:01:04.858Z,65.10
2022-11-08T21:03:31.773Z,65.20
2022-11-08T21:06:00.096Z,65.20
2022-11-08T21:11:14.172Z,65.20
2022-11-08T21:13:41.663Z,65.20
2022-11-08T21:16:28.708Z,65.30
2022-11-08T21:18:55.837Z,65.30
2022-11-08T21:21:22.573Z,65.30
2022-11-08T21:23:49.570Z,65.30
2022-11-08T21:26:17.377Z,65.40
2022-11-08T21:28:44.043Z,65.40
2022-11-08T21:31:11.332Z,65.40
2022-11-08T21:33:38.376Z,65.50
2022-11-08T21:36:05.602Z,65.50
2022-11-08T21:38:34.691Z,65.50
2022-11-08T21:41:02.279Z,65.40
2022-11-08T21:43:29.223Z,65.50
2022-11-08T21:45:55.975Z,65.40
2022-11-08T21:48:23.462Z,65.30
2022-11-08T21:50:50.259Z,65.40
2022-11-08T21:53:16.944Z,65.30
2022-11-08T21:55:43.840Z,65.40
2022-11-08T21:58:10.748Z,65.50
2022-11-08T22:00:37.494Z,65.50
2022-11-08T22:03:04.249Z,65.30
2022-11-08T22:05:30.931Z,65.40
2022-11-08T22:07:57.649Z,65.30
2022-11-08T22:10:24.398Z,65.30
2022-11-08T22:12:51.142Z,65.30
2022-11-08T22:15:17.840Z,65.20
2022-11-08T22:18:07.709Z,65.20
2022-11-08T22:20:31.175Z,65.60
2022-11-08T22:22:57.855Z,65.30
2022-11-08T22:25:24.518Z,65.30
2022-11-08T22:27:51.223Z,65.30
2022-11-08T22:30:17.951Z,65.30
2022-11-08T22:32:44.659Z,65.30
2022-11-08T22:35:11.330Z,65.40
2022-11-08T22:37:39.297Z,65.20
2022-11-08T22:40:07.019Z,65.30
2022-11-08T22:42:33.747Z,65.20
2022-11-08T22:45:00.481Z,65.20
2022-11-08T22:47:27.171Z,65.20
2022-11-08T22:49:53.879Z,65.80
2022-11-08T22:52:20.633Z,65.30
2022-11-08T22:54:49.207Z,65.20
2022-11-08T22:57:15.926Z,65.20
2022-11-08T22:59:42.615Z,65.30
2022-11-08T23:02:09.283Z,65.20
2022-11-08T23:04:36.026Z,65.20
2022-11-08T23:07:02.835Z,65.30
2022-11-08T23:09:29.585Z,65.30
2022-11-08T23:12:14.990Z,65.20
2022-11-08T23:15:00.447Z,65.20
2022-11-08T23:17:27.133Z,65.20
2022-11-08T23:20:12.642Z,65.30
2022-11-08T23:22:58.180Z,65.40
2022-11-08T23:25:24.872Z,65.30
2022-11-08T23:28:10.374Z,65.20
2022-11-08T23:30:57.292Z,65.30
2022-11-08T23:33:23.926Z,65.40
2022-11-08T23:36:12.262Z,65.50
2022-11-08T23:38:38.939Z,65.20
2022-11-08T23:41:24.369Z,65.30
2022-11-08T23:44:14.433Z,65.50
2022-11-08T23:46:41.166Z,65.30
2022-11-08T23:49:07.822Z,65.20
2022-11-08T23:51:34.518Z,65.30
2022-11-08T23:54:01.174Z,65.20
2022-11-08T23:56:28.121Z,65.10
2022-11-08T23:58:55.590Z,65.40
